Terminal Aerodrome Forecast
Issued by NWS Upton, NY

Home | Current Version | Previous Version | Text Only | Print | Product List | Glossary On
Versions: 1 2 3 4 5 6 7 8 9 10 11 12 13 14 15 16 17 18 19 20 21 22 23 24 25 26 27 28
000
FTUS41 KOKX 032328
TAFEWR
TAF
KEWR 032328Z 0400/0506 24015G23KT P6SM FEW060 SCT100
     FM040200 23008KT P6SM SCT050 BKN100
      TEMPO 0406/0409 3SM TSRA SCT030CB BKN050
     FM040900 24009KT P6SM SCT050 SCT100
     FM041600 26015G23KT P6SM BKN050
     FM050200 28008KT P6SM SCT050 SCT100=

USA.gov is the U.S. government's official web portal to all federal, state and local government web resources and services.